KMBS/MBS METAR and TAF weather

Enter ICAO airport designator
Station Type Date Time Source
KMBS METAR 2020/07/06 07:53 UTC NOAA

KMBS 060753Z AUTO 00000KT 10SM CLR 22/11 A2999 RMK AO2 SLP149 T02170106


Station Type Date Time Source
KMBS Decoded METAR 2020/07/06 07:53 UTC NOAA

MBS INTERNATIONAL AIRPORT, MI, United States (KMBS) 43-32N 084-05W 202M
Jul 06, 2020 - 03:53 AM EDT / 2020.07.06 0753 UTC
Wind: Calm:0
Visibility: 10 mile(s):0
Sky conditions: clear
Temperature: 71.1 F (21.7 C)
Dew Point: 51.1 F (10.6 C)
Relative Humidity: 49%
Pressure (altimeter): 29.99 in. Hg (1015 hPa)
ob: KMBS 060753Z AUTO 00000KT 10SM CLR 22/11 A2999 RMK AO2 SLP149 T02170106
cycle: 8

Station Type Date Time Source
KMBS TAF 2020/07/06 06:42 UTC NOAA

TAF KMBS 060541Z 0606/0706 VRB03KT P6SM FEW120
FM061700 21008KT P6SM SCT070
FM070100 19005KT P6SM FEW080

Example: see airport list